Terminal Aerodrome Forecast
Issued by NWS

Home | Current Version | Previous Version | Text Only | Print | Product List | Glossary On
Versions: 1 2 3 4 5 6 7 8 9 10 11 12 13 14 15 16 17 18 19 20
001
FTUS44 KLZK 262258 AAE
TAFBPK
TAF AMD
KBPK 262258Z 2623/2718 31010G17KT 5SM -RA BR OVC003
     FM270000 27020G30KT 3SM BR OVC010
      TEMPO 2700/2704 3SM -SHRA BR OVC007
     FM270400 29015G25KT P6SM -RA BKN020 OVC040
     FM270900 30007KT P6SM SCT040 OVC080
     FM271500 30006KT P6SM SCT050=

USA.gov is the U.S. government's official web portal to all federal, state and local government web resources and services.